Arklow Manor — EIHC3 — position and weather

sailwx.info

Track history (hours):
 
Tides and Currents Weather Stations Pressure Air Temp Water Temp Dewpoint Dewpoint Depression Visibility Wind Speed Wind Dir Waves Ship Positions

Arklow Manor

Last reported at 2017-Dec-11 16:59 UTC. Time now 2017-Dec-12 23:46 UTC.
Position N 53°60' W 005°59'.

Length 137 m; draft 8.4 m.

Type: Ship. MMSI: 250001723.

Date/timePositionNaut miles runAvg speedWind from/ knotsBaromVisibWave heightAir tempDewpointWater temp
2017-Dec-11 16:59N 53°60' W 005°59'0 0.0
2017-Dec-11 16:29N 53°60' W 005°59'0 0.1
2017-Dec-11 15:56N 53°60' W 005°59'0 0.0
2017-Dec-11 15:29N 53°60' W 005°59'0 0.0
2017-Dec-11 14:53N 53°60' W 005°59'0 0.0
2017-Dec-11 14:29N 53°60' W 005°59'0 0.0
2017-Dec-11 13:50N 53°60' W 005°59'0 0.0
2017-Dec-11 13:26N 53°60' W 005°59'0 0.1
2017-Dec-11 12:59N 53°60' W 005°59'0 0.0
2017-Dec-11 12:29N 53°60' W 005°59'0 0.0
2017-Dec-11 11:53N 53°60' W 005°59'0 0.0
2017-Dec-11 11:29N 53°60' W 005°59'0 0.0
2017-Dec-11 10:59N 53°60' W 005°59'0 0.0
2017-Dec-11 10:29N 53°60' W 005°59'0 0.0
2017-Dec-11 09:59N 53°60' W 005°59'0 0.0
2017-Dec-11 09:29N 53°60' W 005°59'0 0.1
2017-Dec-11 08:59N 53°60' W 005°59'0 0.1
2017-Dec-11 08:29N 53°60' W 005°59'0 0.0
2017-Dec-11 07:59N 53°60' W 005°59'0 0.1
2017-Dec-11 07:29N 53°60' W 005°59'0 0.0
2017-Dec-11 06:59N 53°60' W 005°59'0 0.0
2017-Dec-11 06:29N 53°60' W 005°60'0 0.0
2017-Dec-11 05:53N 53°60' W 005°60'0 0.0
2017-Dec-11 05:26N 53°60' W 005°59'0 0.0
2017-Dec-11 04:59N 53°60' W 005°59'0 0.0
2017-Dec-11 04:29N 53°60' W 005°59'0 0.0
2017-Dec-11 03:53N 53°60' W 005°60'0 0.0
2017-Dec-11 03:26N 53°60' W 005°59'0 0.0
2017-Dec-11 02:56N 53°60' W 005°59'0 0.0
2017-Dec-11 02:29N 53°60' W 005°59'0 0.0
2017-Dec-11 01:59N 53°60' W 005°59'0 0.1
2017-Dec-11 01:29N 53°60' W 005°60'0 0.0
2017-Dec-11 00:53N 53°60' W 005°60'0 0.0
2017-Dec-11 00:11N 53°60' W 005°60'0 0.0
2017-Dec-10 23:59N 53°60' W 005°60'0 0.1
2017-Dec-10 23:29N 53°60' W 005°60'1 2.5
2017-Dec-10 23:00N 53°58' W 005°59'612.0
2017-Dec-10 22:30N 53°52' W 005°58'7910.3
2017-Dec-10 14:49N 52°34' W 005°43'6311.7
2017-Dec-10 09:23N 51°30' W 005°49'1610.1
2017-Dec-10 07:49N 51°14' W 005°49'4 9.5
2017-Dec-10 07:24N 51°10' W 005°50'5 9.8
2017-Dec-10 06:54N 51°06' W 005°51'4 9.4
2017-Dec-10 06:27N 51°02' W 005°52'4 9.3
2017-Dec-10 06:00N 50°57' W 005°51'4 9.0
2017-Dec-10 05:30N 50°53' W 005°51'5 9.3
2017-Dec-10 04:59N 50°48' W 005°51'5 9.9
2017-Dec-10 04:28N 50°43' W 005°51'510.2
2017-Dec-10 04:00N 50°38' W 005°51'510.5
2017-Dec-10 03:30N 50°33' W 005°52'510.7
2017-Dec-10 03:00N 50°28' W 005°52'510.6
2017-Dec-10 02:31N 50°22' W 005°52'510.6
2017-Dec-10 02:00N 50°17' W 005°52'610.4
2017-Dec-10 01:27N 50°11' W 005°52'510.3
2017-Dec-10 00:56N 50°06' W 005°52'410.1
2017-Dec-10 00:30N 50°02' W 005°52'7 8.5
2017-Dec-09 23:42N 49°59' W 005°42'210.0
2017-Dec-09 23:29N 49°59' W 005°39'510.2
2017-Dec-09 23:00N 49°58' W 005°31'1310.9
2017-Dec-09 21:45N 49°56' W 005°10'2 9.9
2017-Dec-09 21:30N 49°56' W 005°07'510.2
2017-Dec-09 21:00N 49°57' W 004°59'510.4
2017-Dec-09 20:30N 49°58' W 004°51'510.6
2017-Dec-09 20:00N 49°59' W 004°43'510.9
2017-Dec-09 19:31N 50°01' W 004°35'611.0
2017-Dec-09 19:00N 50°02' W 004°27'611.3
2017-Dec-09 18:30N 50°03' W 004°18'611.5
2017-Dec-09 18:00N 50°04' W 004°09'611.7
2017-Dec-09 17:31N 50°06' W 004°00'612.1
2017-Dec-09 17:00N 50°07' W 003°51'712.4
2017-Dec-09 16:26N 50°08' W 003°40'512.2
2017-Dec-09 16:00N 50°10' W 003°33'611.7
2017-Dec-09 15:30N 50°11' W 003°24'611.4
2017-Dec-09 15:00N 50°12' W 003°15'511.0
2017-Dec-09 14:30N 50°14' W 003°06'510.5
2017-Dec-09 14:00N 50°15' W 002°58'510.1
2017-Dec-09 13:30N 50°16' W 002°51'5 9.7
2017-Dec-09 12:56N 50°17' W 002°42'4 9.3
2017-Dec-09 12:30N 50°18' W 002°36'20 8.9
2017-Dec-09 10:18N 50°23' W 002°07'410.5
2017-Dec-09 09:53N 50°24' W 001°60'411.2
2017-Dec-09 09:30N 50°25' W 001°53'611.2
2017-Dec-09 09:00N 50°26' W 001°45'510.8
2017-Dec-09 08:30N 50°27' W 001°36'611.5
2017-Dec-09 08:00N 50°28' W 001°27'714.4
2017-Dec-09 07:30N 50°28' W 001°16'714.7
2017-Dec-09 07:00N 50°29' W 001°05'612.8
2017-Dec-09 06:31N 50°29' W 000°55'612.8
2017-Dec-09 06:01N 50°30' W 000°45'2212.3
2017-Dec-09 04:13N 50°32' W 000°10'211.5
2017-Dec-09 04:00N 50°32' W 000°06'611.2
2017-Dec-09 03:30N 50°34' E 000°02'510.9
2017-Dec-09 03:01N 50°35' E 000°10'510.3
2017-Dec-09 02:30N 50°36' E 000°18'5 9.9
2017-Dec-09 02:00N 50°38' E 000°26'5 9.7
2017-Dec-09 01:30N 50°39' E 000°33'510.0
2017-Dec-09 01:00N 50°42' E 000°40'510.3
2017-Dec-09 00:30N 50°45' E 000°46'510.8
2017-Dec-09 00:01N 50°48' E 000°53'611.5
2017-Dec-08 23:31N 50°51' E 001°01'712.5
2017-Dec-08 22:58N 50°55' E 001°09'613.4
2017-Dec-08 22:30N 50°59' E 001°17'714.2
2017-Dec-08 22:00N 51°04' E 001°25'816.0
2017-Dec-08 21:30N 51°10' E 001°34'714.4
2017-Dec-08 21:00N 51°16' E 001°40'612.3
2017-Dec-08 20:30N 51°22' E 001°42'611.2
2017-Dec-08 20:00N 51°27' E 001°44'510.8
2017-Dec-08 19:30N 51°33' E 001°44'510.4
2017-Dec-08 19:01N 51°38' E 001°44'510.1
2017-Dec-08 18:30N 51°43' E 001°43'510.1
2017-Dec-08 18:00N 51°48' E 001°42'510.4
2017-Dec-08 17:30N 51°51' E 001°35'5 9.1
2017-Dec-08 17:00N 51°55' E 001°33'4 8.8
2017-Dec-08 16:30N 51°56' E 001°26'5 9.8
2017-Dec-08 16:00N 51°57' E 001°18'4 8.2
2017-Dec-08 15:30N 51°60' E 001°14'4 7.1
2017-Dec-08 15:00N 52°02' E 001°09'0 0.9
2017-Dec-08 14:29N 52°02' E 001°10'0 0.0
2017-Dec-08 13:59N 52°02' E 001°10'0 0.0
2017-Dec-08 13:29N 52°02' E 001°10'0 0.0
2017-Dec-08 12:59N 52°02' E 001°10'0 0.0
2017-Dec-08 12:29N 52°02' E 001°10'0 0.0
2017-Dec-08 11:59N 52°02' E 001°10'0 0.0
2017-Dec-08 11:29N 52°02' E 001°10'0 0.0
2017-Dec-08 10:59N 52°02' E 001°10'0 0.0
2017-Dec-08 10:29N 52°02' E 001°10'0 0.1
2017-Dec-08 09:59N 52°03' E 001°10'0 0.0
2017-Dec-08 09:29N 52°03' E 001°10'0 0.0
2017-Dec-08 08:59N 52°03' E 001°10'0 0.0
2017-Dec-08 08:29N 52°03' E 001°10'0 0.0
2017-Dec-08 07:59N 52°03' E 001°10'0 0.0
2017-Dec-08 07:29N 52°03' E 001°10'0 0.0
2017-Dec-08 06:59N 52°03' E 001°10'0 0.0
2017-Dec-08 06:29N 52°03' E 001°10'0 0.0
2017-Dec-08 05:59N 52°03' E 001°10'0 0.0
2017-Dec-08 05:29N 52°03' E 001°10'0 0.0
2017-Dec-08 04:59N 52°03' E 001°10'0 0.0
2017-Dec-08 04:29N 52°03' E 001°10'0 0.0
2017-Dec-08 03:59N 52°03' E 001°10'0 0.0
2017-Dec-08 03:29N 52°03' E 001°10'0 0.0
2017-Dec-08 02:59N 52°03' E 001°10'0 0.0
2017-Dec-08 02:29N 52°03' E 001°10'0 0.0
2017-Dec-08 01:59N 52°03' E 001°10'0 0.0
2017-Dec-08 01:29N 52°03' E 001°10'0 0.0
2017-Dec-08 00:59N 52°03' E 001°10'0 0.0
2017-Dec-08 00:29N 52°03' E 001°10'0 0.0
2017-Dec-07 23:59N 52°03' E 001°10'0 0.0
2017-Dec-07 23:29N 52°03' E 001°10'0 0.0
2017-Dec-07 22:59N 52°03' E 001°10'0 0.0
2017-Dec-07 22:29N 52°03' E 001°10'0 0.0
2017-Dec-07 21:59N 52°03' E 001°10'0 0.0
2017-Dec-07 21:29N 52°03' E 001°10'0 0.0
2017-Dec-07 20:59N 52°03' E 001°10'0 0.0
2017-Dec-07 20:29N 52°03' E 001°10'0 0.0
2017-Dec-07 19:59N 52°03' E 001°10'0 0.0
2017-Dec-07 19:29N 52°03' E 001°10'0 0.0
2017-Dec-07 18:59N 52°03' E 001°10'0 0.0
2017-Dec-07 18:29N 52°03' E 001°10'0 0.0
2017-Dec-07 17:59N 52°03' E 001°10'0 0.0
2017-Dec-07 17:29N 52°03' E 001°10'0 0.0
2017-Dec-07 16:59N 52°03' E 001°10'0 0.0
2017-Dec-07 16:29N 52°03' E 001°10'0 0.0
2017-Dec-07 15:59N 52°03' E 001°10'0 0.0
2017-Dec-07 15:29N 52°03' E 001°10'0 0.0
2017-Dec-07 14:59N 52°03' E 001°10'0 0.0
2017-Dec-07 14:29N 52°03' E 001°10'0 0.0
2017-Dec-07 13:59N 52°03' E 001°10'0 0.0
2017-Dec-07 13:29N 52°03' E 001°10'0 0.0
2017-Dec-07 12:59N 52°03' E 001°10'0 0.0
2017-Dec-07 12:29N 52°03' E 001°10'0 0.0
2017-Dec-07 11:59N 52°03' E 001°10'0 0.0
2017-Dec-07 11:29N 52°03' E 001°10'0 0.0
2017-Dec-07 10:59N 52°03' E 001°10'0 0.0
2017-Dec-07 10:29N 52°03' E 001°10'0 0.0
2017-Dec-07 09:59N 52°03' E 001°10'0 0.0
2017-Dec-07 09:29N 52°03' E 001°10'0 0.0
2017-Dec-07 08:59N 52°03' E 001°10'0 0.0
2017-Dec-07 08:29N 52°03' E 001°10'0 0.0
2017-Dec-07 07:59N 52°03' E 001°10'0 0.0
2017-Dec-07 07:29N 52°03' E 001°10'0 0.0
2017-Dec-07 06:59N 52°03' E 001°10'0 0.0
2017-Dec-07 06:29N 52°03' E 001°10'0 0.0
2017-Dec-07 05:59N 52°03' E 001°10'0 0.0
2017-Dec-07 05:29N 52°03' E 001°10'0 0.0
2017-Dec-07 04:59N 52°03' E 001°10'0 0.0
2017-Dec-07 04:29N 52°03' E 001°10'0 0.0
2017-Dec-07 03:59N 52°03' E 001°10'0 0.0
2017-Dec-07 03:29N 52°03' E 001°10'0 0.0
2017-Dec-07 02:59N 52°03' E 001°10'0 0.0
2017-Dec-07 02:29N 52°03' E 001°10'0 0.0
2017-Dec-07 01:59N 52°03' E 001°10'0 0.0
2017-Dec-07 01:29N 52°03' E 001°10'0 0.0
2017-Dec-07 00:59N 52°03' E 001°10'0 0.0
2017-Dec-07 00:29N 52°03' E 001°10'0 0.0
2017-Dec-06 23:59N 52°03' E 001°10'0 0.0
2017-Dec-06 23:29N 52°03' E 001°10'0 0.0
2017-Dec-06 22:59N 52°03' E 001°10'0 0.0
2017-Dec-06 22:29N 52°03' E 001°10'0 0.0
2017-Dec-06 21:59N 52°03' E 001°10'0 0.0
2017-Dec-06 21:29N 52°03' E 001°10'0 0.0
2017-Dec-06 20:59N 52°03' E 001°10'  
2017-Dec-04 09:46N 51°00' E 002°11'0 0.0
2017-Dec-04 09:28N 51°00' E 002°11'0 0.0
2017-Dec-04 08:58N 51°00' E 002°11'0 0.0
2017-Dec-04 08:22N 51°00' E 002°11'0 0.0
2017-Dec-04 07:34N 51°00' E 002°11'0 0.0
2017-Dec-04 07:28N 51°00' E 002°11'0 0.0
2017-Dec-04 06:07N 51°00' E 002°11'0 0.0
2017-Dec-04 05:58N 51°00' E 002°11'0 0.0
2017-Dec-04 05:19N 51°00' E 002°11'0 0.0
2017-Dec-04 04:58N 51°00' E 002°11'0 0.0
2017-Dec-04 04:28N 51°00' E 002°11'0 0.0
2017-Dec-04 03:55N 51°00' E 002°11'0 0.0
2017-Dec-04 03:28N 51°00' E 002°11'0 0.0
2017-Dec-04 02:55N 51°00' E 002°11'0 0.0
2017-Dec-04 02:22N 51°00' E 002°11'0 0.0
2017-Dec-04 01:31N 51°00' E 002°11'0 0.0
2017-Dec-04 01:07N 51°00' E 002°11'0 0.0
2017-Dec-04 00:43N 51°00' E 002°11'0 0.0
2017-Dec-04 00:25N 51°00' E 002°11'0 0.0
2017-Dec-03 23:58N 51°00' E 002°11'0 0.0
2017-Dec-03 23:25N 51°00' E 002°11'0 0.0
2017-Dec-03 22:52N 51°00' E 002°11'0 0.0
2017-Dec-03 22:28N 51°00' E 002°11'0 0.0
2017-Dec-03 21:52N 51°00' E 002°11'0 0.0
2017-Dec-03 21:28N 51°00' E 002°11'0 0.0
2017-Dec-03 20:55N 51°00' E 002°11'0 0.0
2017-Dec-03 20:25N 51°00' E 002°11'0 0.0
2017-Dec-03 19:55N 51°00' E 002°11'0 0.0
2017-Dec-03 19:22N 51°00' E 002°11'0 0.0
2017-Dec-03 18:55N 51°00' E 002°11'0 0.0
2017-Dec-03 18:28N 51°00' E 002°11'0 0.0
2017-Dec-03 17:58N 51°00' E 002°11'0 0.0
2017-Dec-03 17:22N 51°00' E 002°11'0 0.0
2017-Dec-03 16:55N 51°00' E 002°11'0 0.0
2017-Dec-03 16:28N 51°00' E 002°11'0 0.0
2017-Dec-03 15:55N 51°00' E 002°11'0 0.0
2017-Dec-03 15:28N 51°00' E 002°11'0 0.0
2017-Dec-03 14:55N 51°00' E 002°11'0 0.0
2017-Dec-03 14:28N 51°00' E 002°11'0 0.0
2017-Dec-03 13:58N 51°00' E 002°11'0 0.0
2017-Dec-03 12:55N 51°00' E 002°11'0 0.0
2017-Dec-03 12:28N 51°00' E 002°11'0 0.0
2017-Dec-03 11:28N 51°00' E 002°11'0 0.0
2017-Dec-03 10:55N 51°00' E 002°11'0 0.0
2017-Dec-03 10:22N 51°00' E 002°11'0 0.0
2017-Dec-03 09:55N 51°00' E 002°11'0 0.0
2017-Dec-03 09:25N 51°00' E 002°11'0 0.0
2017-Dec-03 08:58N 51°00' E 002°11'0 0.0
2017-Dec-03 08:28N 51°00' E 002°11'0 0.0
2017-Dec-03 07:52N 51°00' E 002°11'0 0.0
2017-Dec-03 07:28N 51°00' E 002°11'0 0.0
2017-Dec-03 06:55N 51°00' E 002°11'0 0.0
2017-Dec-03 06:07N 51°00' E 002°11'0 0.0
2017-Dec-03 05:46N 51°00' E 002°11'0 0.0
2017-Dec-03 05:19N 51°00' E 002°11'0 0.0
2017-Dec-03 04:52N 51°00' E 002°11'0 0.0
2017-Dec-03 04:25N 51°00' E 002°11'0 0.0
2017-Dec-03 03:52N 51°00' E 002°11'0 0.0
2017-Dec-03 03:22N 51°00' E 002°11'0 0.0
2017-Dec-03 02:55N 51°00' E 002°11'0 0.0
2017-Dec-03 02:28N 51°00' E 002°11'0 0.0
2017-Dec-03 01:55N 51°00' E 002°11'0 0.0
2017-Dec-03 01:28N 51°00' E 002°11'0 0.0
2017-Dec-03 00:55N 51°00' E 002°11'0 0.0
2017-Dec-03 00:28N 51°00' E 002°11'0 0.0
2017-Dec-02 23:58N 51°00' E 002°11'0 0.0
2017-Dec-02 23:01N 51°00' E 002°11'0 0.0
2017-Dec-02 22:58N 51°00' E 002°11'0 0.0
2017-Dec-02 22:28N 51°00' E 002°11'0 0.0
2017-Dec-02 21:58N 51°00' E 002°11'0 0.0
2017-Dec-02 21:22N 51°00' E 002°11'0 0.0
2017-Dec-02 20:58N 51°00' E 002°11'0 0.0
2017-Dec-02 20:13N 51°00' E 002°11'0 0.0
2017-Dec-02 19:58N 51°00' E 002°11'0 0.0
2017-Dec-02 17:46N 51°00' E 002°11'0 0.0
2017-Dec-02 17:25N 51°00' E 002°11'0 0.0
2017-Dec-02 16:55N 51°00' E 002°11'0 0.0
2017-Dec-02 16:28N 51°00' E 002°11'0 0.0
2017-Dec-02 15:49N 51°00' E 002°11'0 0.0
2017-Dec-02 15:28N 51°00' E 002°11'0 0.0
2017-Dec-02 14:58N 51°00' E 002°11'0 0.0
2017-Dec-02 14:28N 51°00' E 002°11'0 0.0
2017-Dec-02 13:58N 51°00' E 002°11'0 0.0
2017-Dec-02 13:13N 51°00' E 002°11'0 0.0
2017-Dec-02 12:52N 51°00' E 002°11'0 0.0
2017-Dec-02 12:28N 51°00' E 002°11'0 0.0
2017-Dec-02 11:55N 51°00' E 002°11'0 0.0
2017-Dec-02 11:25N 51°00' E 002°11'0 0.0
2017-Dec-02 10:55N 51°00' E 002°11'0 0.0
2017-Dec-02 10:22N 51°00' E 002°11'0 0.0
2017-Dec-02 09:58N 51°00' E 002°11'0 0.0
2017-Dec-02 09:25N 51°00' E 002°11'0 0.0
2017-Dec-02 08:52N 51°00' E 002°11'0 0.0
2017-Dec-02 08:28N 51°00' E 002°11'0 0.0
2017-Dec-02 07:58N 51°00' E 002°11'0 0.0
2017-Dec-02 07:28N 51°00' E 002°11'0 0.0
2017-Dec-02 06:49N 51°00' E 002°11'0 0.0
2017-Dec-02 06:28N 51°00' E 002°11'0 0.0
2017-Dec-02 05:52N 51°00' E 002°11'0 0.0
2017-Dec-02 05:28N 51°00' E 002°11'0 0.0
2017-Dec-02 04:58N 51°00' E 002°11'0 0.0
2017-Dec-02 03:22N 51°00' E 002°11'0 0.0
2017-Dec-02 02:49N 51°00' E 002°11'0 0.0
2017-Dec-02 02:28N 51°00' E 002°11'0 0.0
2017-Dec-02 01:58N 51°00' E 002°11'0 0.0
2017-Dec-02 01:22N 51°00' E 002°11'0 0.0
2017-Dec-02 00:58N 51°00' E 002°11'0 0.0
2017-Dec-02 00:28N 51°00' E 002°11'0 0.0
2017-Dec-01 23:58N 51°00' E 002°11'0 0.0
2017-Dec-01 23:28N 51°00' E 002°11'0 0.0
2017-Dec-01 22:58N 51°00' E 002°11'0 0.0
2017-Dec-01 22:28N 51°00' E 002°11'0 0.0
2017-Dec-01 21:58N 51°00' E 002°11'714.5
2017-Dec-01 21:30N 51°03' E 002°01'3 4.9
2017-Dec-01 20:59N 51°03' E 002°05'714.5
2017-Dec-01 20:30N 51°02' E 001°54'  
Track history (hours):
 
Tides and Currents Weather Stations Pressure Air Temp Water Temp Dewpoint Dewpoint Depression Visibility Wind Speed Wind Dir Waves Ship Positions

Arklow Manor

Last reported at 2017-Dec-11 16:59 UTC. Time now 2017-Dec-12 23:46 UTC.
Position N 53°60' W 005°59'.

Length 137 m; draft 8.4 m.

Type: Ship. MMSI: 250001723.

Date/timePositionNaut miles runAvg speedWind from/ knotsBaromVisibWave heightAir tempDewpointWater temp
2017-Dec-11 16:59N 53°60' W 005°59'0 0.0
2017-Dec-11 16:29N 53°60' W 005°59'0 0.1
2017-Dec-11 15:56N 53°60' W 005°59'0 0.0
2017-Dec-11 15:29N 53°60' W 005°59'0 0.0
2017-Dec-11 14:53N 53°60' W 005°59'0 0.0
2017-Dec-11 14:29N 53°60' W 005°59'0 0.0
2017-Dec-11 13:50N 53°60' W 005°59'0 0.0
2017-Dec-11 13:26N 53°60' W 005°59'0 0.1
2017-Dec-11 12:59N 53°60' W 005°59'0 0.0
2017-Dec-11 12:29N 53°60' W 005°59'0 0.0
2017-Dec-11 11:53N 53°60' W 005°59'0 0.0
2017-Dec-11 11:29N 53°60' W 005°59'0 0.0
2017-Dec-11 10:59N 53°60' W 005°59'0 0.0
2017-Dec-11 10:29N 53°60' W 005°59'0 0.0
2017-Dec-11 09:59N 53°60' W 005°59'0 0.0
2017-Dec-11 09:29N 53°60' W 005°59'0 0.1
2017-Dec-11 08:59N 53°60' W 005°59'0 0.1
2017-Dec-11 08:29N 53°60' W 005°59'0 0.0
2017-Dec-11 07:59N 53°60' W 005°59'0 0.1
2017-Dec-11 07:29N 53°60' W 005°59'0 0.0
2017-Dec-11 06:59N 53°60' W 005°59'0 0.0
2017-Dec-11 06:29N 53°60' W 005°60'0 0.0
2017-Dec-11 05:53N 53°60' W 005°60'0 0.0
2017-Dec-11 05:26N 53°60' W 005°59'0 0.0
2017-Dec-11 04:59N 53°60' W 005°59'0 0.0
2017-Dec-11 04:29N 53°60' W 005°59'0 0.0
2017-Dec-11 03:53N 53°60' W 005°60'0 0.0
2017-Dec-11 03:26N 53°60' W 005°59'0 0.0
2017-Dec-11 02:56N 53°60' W 005°59'0 0.0
2017-Dec-11 02:29N 53°60' W 005°59'0 0.0
2017-Dec-11 01:59N 53°60' W 005°59'0 0.1
2017-Dec-11 01:29N 53°60' W 005°60'0 0.0
2017-Dec-11 00:53N 53°60' W 005°60'0 0.0
2017-Dec-11 00:11N 53°60' W 005°60'0 0.0
2017-Dec-10 23:59N 53°60' W 005°60'0 0.1
2017-Dec-10 23:29N 53°60' W 005°60'1 2.5
2017-Dec-10 23:00N 53°58' W 005°59'612.0
2017-Dec-10 22:30N 53°52' W 005°58'7910.3
2017-Dec-10 14:49N 52°34' W 005°43'6311.7
2017-Dec-10 09:23N 51°30' W 005°49'1610.1
2017-Dec-10 07:49N 51°14' W 005°49'4 9.5
2017-Dec-10 07:24N 51°10' W 005°50'5 9.8
2017-Dec-10 06:54N 51°06' W 005°51'4 9.4
2017-Dec-10 06:27N 51°02' W 005°52'4 9.3
2017-Dec-10 06:00N 50°57' W 005°51'4 9.0
2017-Dec-10 05:30N 50°53' W 005°51'5 9.3
2017-Dec-10 04:59N 50°48' W 005°51'5 9.9
2017-Dec-10 04:28N 50°43' W 005°51'510.2
2017-Dec-10 04:00N 50°38' W 005°51'510.5
2017-Dec-10 03:30N 50°33' W 005°52'510.7
2017-Dec-10 03:00N 50°28' W 005°52'510.6
2017-Dec-10 02:31N 50°22' W 005°52'510.6
2017-Dec-10 02:00N 50°17' W 005°52'610.4
2017-Dec-10 01:27N 50°11' W 005°52'510.3
2017-Dec-10 00:56N 50°06' W 005°52'410.1
2017-Dec-10 00:30N 50°02' W 005°52'7 8.5
2017-Dec-09 23:42N 49°59' W 005°42'210.0
2017-Dec-09 23:29N 49°59' W 005°39'510.2
2017-Dec-09 23:00N 49°58' W 005°31'1310.9
2017-Dec-09 21:45N 49°56' W 005°10'2 9.9
2017-Dec-09 21:30N 49°56' W 005°07'510.2
2017-Dec-09 21:00N 49°57' W 004°59'510.4
2017-Dec-09 20:30N 49°58' W 004°51'510.6
2017-Dec-09 20:00N 49°59' W 004°43'510.9
2017-Dec-09 19:31N 50°01' W 004°35'611.0
2017-Dec-09 19:00N 50°02' W 004°27'611.3
2017-Dec-09 18:30N 50°03' W 004°18'611.5
2017-Dec-09 18:00N 50°04' W 004°09'611.7
2017-Dec-09 17:31N 50°06' W 004°00'612.1
2017-Dec-09 17:00N 50°07' W 003°51'712.4
2017-Dec-09 16:26N 50°08' W 003°40'512.2
2017-Dec-09 16:00N 50°10' W 003°33'611.7
2017-Dec-09 15:30N 50°11' W 003°24'611.4
2017-Dec-09 15:00N 50°12' W 003°15'511.0
2017-Dec-09 14:30N 50°14' W 003°06'510.5
2017-Dec-09 14:00N 50°15' W 002°58'510.1
2017-Dec-09 13:30N 50°16' W 002°51'5 9.7
2017-Dec-09 12:56N 50°17' W 002°42'4 9.3
2017-Dec-09 12:30N 50°18' W 002°36'20 8.9
2017-Dec-09 10:18N 50°23' W 002°07'410.5
2017-Dec-09 09:53N 50°24' W 001°60'411.2
2017-Dec-09 09:30N 50°25' W 001°53'611.2
2017-Dec-09 09:00N 50°26' W 001°45'510.8
2017-Dec-09 08:30N 50°27' W 001°36'611.5
2017-Dec-09 08:00N 50°28' W 001°27'714.4
2017-Dec-09 07:30N 50°28' W 001°16'714.7
2017-Dec-09 07:00N 50°29' W 001°05'612.8
2017-Dec-09 06:31N 50°29' W 000°55'612.8
2017-Dec-09 06:01N 50°30' W 000°45'2212.3
2017-Dec-09 04:13N 50°32' W 000°10'211.5
2017-Dec-09 04:00N 50°32' W 000°06'611.2
2017-Dec-09 03:30N 50°34' E 000°02'510.9
2017-Dec-09 03:01N 50°35' E 000°10'510.3
2017-Dec-09 02:30N 50°36' E 000°18'5 9.9
2017-Dec-09 02:00N 50°38' E 000°26'5 9.7
2017-Dec-09 01:30N 50°39' E 000°33'510.0
2017-Dec-09 01:00N 50°42' E 000°40'510.3
2017-Dec-09 00:30N 50°45' E 000°46'510.8
2017-Dec-09 00:01N 50°48' E 000°53'611.5
2017-Dec-08 23:31N 50°51' E 001°01'712.5
2017-Dec-08 22:58N 50°55' E 001°09'613.4
2017-Dec-08 22:30N 50°59' E 001°17'714.2
2017-Dec-08 22:00N 51°04' E 001°25'816.0
2017-Dec-08 21:30N 51°10' E 001°34'714.4
2017-Dec-08 21:00N 51°16' E 001°40'612.3
2017-Dec-08 20:30N 51°22' E 001°42'611.2
2017-Dec-08 20:00N 51°27' E 001°44'510.8
2017-Dec-08 19:30N 51°33' E 001°44'510.4
2017-Dec-08 19:01N 51°38' E 001°44'510.1
2017-Dec-08 18:30N 51°43' E 001°43'510.1
2017-Dec-08 18:00N 51°48' E 001°42'510.4
2017-Dec-08 17:30N 51°51' E 001°35'5 9.1
2017-Dec-08 17:00N 51°55' E 001°33'4 8.8
2017-Dec-08 16:30N 51°56' E 001°26'5 9.8
2017-Dec-08 16:00N 51°57' E 001°18'4 8.2
2017-Dec-08 15:30N 51°60' E 001°14'4 7.1
2017-Dec-08 15:00N 52°02' E 001°09'0 0.9
2017-Dec-08 14:29N 52°02' E 001°10'0 0.0
2017-Dec-08 13:59N 52°02' E 001°10'0 0.0
2017-Dec-08 13:29N 52°02' E 001°10'0 0.0
2017-Dec-08 12:59N 52°02' E 001°10'0 0.0
2017-Dec-08 12:29N 52°02' E 001°10'0 0.0
2017-Dec-08 11:59N 52°02' E 001°10'0 0.0
2017-Dec-08 11:29N 52°02' E 001°10'0 0.0
2017-Dec-08 10:59N 52°02' E 001°10'0 0.0
2017-Dec-08 10:29N 52°02' E 001°10'0 0.1
2017-Dec-08 09:59N 52°03' E 001°10'0 0.0
2017-Dec-08 09:29N 52°03' E 001°10'0 0.0
2017-Dec-08 08:59N 52°03' E 001°10'0 0.0
2017-Dec-08 08:29N 52°03' E 001°10'0 0.0
2017-Dec-08 07:59N 52°03' E 001°10'0 0.0
2017-Dec-08 07:29N 52°03' E 001°10'0 0.0
2017-Dec-08 06:59N 52°03' E 001°10'0 0.0
2017-Dec-08 06:29N 52°03' E 001°10'0 0.0
2017-Dec-08 05:59N 52°03' E 001°10'0 0.0
2017-Dec-08 05:29N 52°03' E 001°10'0 0.0
2017-Dec-08 04:59N 52°03' E 001°10'0 0.0
2017-Dec-08 04:29N 52°03' E 001°10'0 0.0
2017-Dec-08 03:59N 52°03' E 001°10'0 0.0
2017-Dec-08 03:29N 52°03' E 001°10'0 0.0
2017-Dec-08 02:59N 52°03' E 001°10'0 0.0
2017-Dec-08 02:29N 52°03' E 001°10'0 0.0
2017-Dec-08 01:59N 52°03' E 001°10'0 0.0
2017-Dec-08 01:29N 52°03' E 001°10'0 0.0
2017-Dec-08 00:59N 52°03' E 001°10'0 0.0
2017-Dec-08 00:29N 52°03' E 001°10'0 0.0
2017-Dec-07 23:59N 52°03' E 001°10'0 0.0
2017-Dec-07 23:29N 52°03' E 001°10'0 0.0
2017-Dec-07 22:59N 52°03' E 001°10'0 0.0
2017-Dec-07 22:29N 52°03' E 001°10'0 0.0
2017-Dec-07 21:59N 52°03' E 001°10'0 0.0
2017-Dec-07 21:29N 52°03' E 001°10'0 0.0
2017-Dec-07 20:59N 52°03' E 001°10'0 0.0
2017-Dec-07 20:29N 52°03' E 001°10'0 0.0
2017-Dec-07 19:59N 52°03' E 001°10'0 0.0
2017-Dec-07 19:29N 52°03' E 001°10'0 0.0
2017-Dec-07 18:59N 52°03' E 001°10'0 0.0
2017-Dec-07 18:29N 52°03' E 001°10'0 0.0
2017-Dec-07 17:59N 52°03' E 001°10'0 0.0
2017-Dec-07 17:29N 52°03' E 001°10'0 0.0
2017-Dec-07 16:59N 52°03' E 001°10'0 0.0
2017-Dec-07 16:29N 52°03' E 001°10'0 0.0
2017-Dec-07 15:59N 52°03' E 001°10'0 0.0
2017-Dec-07 15:29N 52°03' E 001°10'0 0.0
2017-Dec-07 14:59N 52°03' E 001°10'0 0.0
2017-Dec-07 14:29N 52°03' E 001°10'0 0.0
2017-Dec-07 13:59N 52°03' E 001°10'0 0.0
2017-Dec-07 13:29N 52°03' E 001°10'0 0.0
2017-Dec-07 12:59N 52°03' E 001°10'0 0.0
2017-Dec-07 12:29N 52°03' E 001°10'0 0.0
2017-Dec-07 11:59N 52°03' E 001°10'0 0.0
2017-Dec-07 11:29N 52°03' E 001°10'0 0.0
2017-Dec-07 10:59N 52°03' E 001°10'0 0.0
2017-Dec-07 10:29N 52°03' E 001°10'0 0.0
2017-Dec-07 09:59N 52°03' E 001°10'0 0.0
2017-Dec-07 09:29N 52°03' E 001°10'0 0.0
2017-Dec-07 08:59N 52°03' E 001°10'0 0.0
2017-Dec-07 08:29N 52°03' E 001°10'0 0.0
2017-Dec-07 07:59N 52°03' E 001°10'0 0.0
2017-Dec-07 07:29N 52°03' E 001°10'0 0.0
2017-Dec-07 06:59N 52°03' E 001°10'0 0.0
2017-Dec-07 06:29N 52°03' E 001°10'0 0.0
2017-Dec-07 05:59N 52°03' E 001°10'0 0.0
2017-Dec-07 05:29N 52°03' E 001°10'0 0.0
2017-Dec-07 04:59N 52°03' E 001°10'0 0.0
2017-Dec-07 04:29N 52°03' E 001°10'0 0.0
2017-Dec-07 03:59N 52°03' E 001°10'0 0.0
2017-Dec-07 03:29N 52°03' E 001°10'0 0.0
2017-Dec-07 02:59N 52°03' E 001°10'0 0.0
2017-Dec-07 02:29N 52°03' E 001°10'0 0.0
2017-Dec-07 01:59N 52°03' E 001°10'0 0.0
2017-Dec-07 01:29N 52°03' E 001°10'0 0.0
2017-Dec-07 00:59N 52°03' E 001°10'0 0.0
2017-Dec-07 00:29N 52°03' E 001°10'0 0.0
2017-Dec-06 23:59N 52°03' E 001°10'0 0.0
2017-Dec-06 23:29N 52°03' E 001°10'0 0.0
2017-Dec-06 22:59N 52°03' E 001°10'0 0.0
2017-Dec-06 22:29N 52°03' E 001°10'0 0.0
2017-Dec-06 21:59N 52°03' E 001°10'0 0.0
2017-Dec-06 21:29N 52°03' E 001°10'0 0.0
2017-Dec-06 20:59N 52°03' E 001°10'  
2017-Dec-04 09:46N 51°00' E 002°11'0 0.0
2017-Dec-04 09:28N 51°00' E 002°11'0 0.0
2017-Dec-04 08:58N 51°00' E 002°11'0 0.0
2017-Dec-04 08:22N 51°00' E 002°11'0 0.0
2017-Dec-04 07:34N 51°00' E 002°11'0 0.0
2017-Dec-04 07:28N 51°00' E 002°11'0 0.0
2017-Dec-04 06:07N 51°00' E 002°11'0 0.0
2017-Dec-04 05:58N 51°00' E 002°11'0 0.0
2017-Dec-04 05:19N 51°00' E 002°11'0 0.0
2017-Dec-04 04:58N 51°00' E 002°11'0 0.0
2017-Dec-04 04:28N 51°00' E 002°11'0 0.0
2017-Dec-04 03:55N 51°00' E 002°11'0 0.0
2017-Dec-04 03:28N 51°00' E 002°11'0 0.0
2017-Dec-04 02:55N 51°00' E 002°11'0 0.0
2017-Dec-04 02:22N 51°00' E 002°11'0 0.0
2017-Dec-04 01:31N 51°00' E 002°11'0 0.0
2017-Dec-04 01:07N 51°00' E 002°11'0 0.0
2017-Dec-04 00:43N 51°00' E 002°11'0 0.0
2017-Dec-04 00:25N 51°00' E 002°11'0 0.0
2017-Dec-03 23:58N 51°00' E 002°11'0 0.0
2017-Dec-03 23:25N 51°00' E 002°11'0 0.0
2017-Dec-03 22:52N 51°00' E 002°11'0 0.0
2017-Dec-03 22:28N 51°00' E 002°11'0 0.0
2017-Dec-03 21:52N 51°00' E 002°11'0 0.0
2017-Dec-03 21:28N 51°00' E 002°11'0 0.0
2017-Dec-03 20:55N 51°00' E 002°11'0 0.0
2017-Dec-03 20:25N 51°00' E 002°11'0 0.0
2017-Dec-03 19:55N 51°00' E 002°11'0 0.0
2017-Dec-03 19:22N 51°00' E 002°11'0 0.0
2017-Dec-03 18:55N 51°00' E 002°11'0 0.0
2017-Dec-03 18:28N 51°00' E 002°11'0 0.0
2017-Dec-03 17:58N 51°00' E 002°11'0 0.0
2017-Dec-03 17:22N 51°00' E 002°11'0 0.0
2017-Dec-03 16:55N 51°00' E 002°11'0 0.0
2017-Dec-03 16:28N 51°00' E 002°11'0 0.0
2017-Dec-03 15:55N 51°00' E 002°11'0 0.0
2017-Dec-03 15:28N 51°00' E 002°11'0 0.0
2017-Dec-03 14:55N 51°00' E 002°11'0 0.0
2017-Dec-03 14:28N 51°00' E 002°11'0 0.0
2017-Dec-03 13:58N 51°00' E 002°11'0 0.0
2017-Dec-03 12:55N 51°00' E 002°11'0 0.0
2017-Dec-03 12:28N 51°00' E 002°11'0 0.0
2017-Dec-03 11:28N 51°00' E 002°11'0 0.0
2017-Dec-03 10:55N 51°00' E 002°11'0 0.0
2017-Dec-03 10:22N 51°00' E 002°11'0 0.0
2017-Dec-03 09:55N 51°00' E 002°11'0 0.0
2017-Dec-03 09:25N 51°00' E 002°11'0 0.0
2017-Dec-03 08:58N 51°00' E 002°11'0 0.0
2017-Dec-03 08:28N 51°00' E 002°11'0 0.0
2017-Dec-03 07:52N 51°00' E 002°11'0 0.0
2017-Dec-03 07:28N 51°00' E 002°11'0 0.0
2017-Dec-03 06:55N 51°00' E 002°11'0 0.0
2017-Dec-03 06:07N 51°00' E 002°11'0 0.0
2017-Dec-03 05:46N 51°00' E 002°11'0 0.0
2017-Dec-03 05:19N 51°00' E 002°11'0 0.0
2017-Dec-03 04:52N 51°00' E 002°11'0 0.0
2017-Dec-03 04:25N 51°00' E 002°11'0 0.0
2017-Dec-03 03:52N 51°00' E 002°11'0 0.0
2017-Dec-03 03:22N 51°00' E 002°11'0 0.0
2017-Dec-03 02:55N 51°00' E 002°11'0 0.0
2017-Dec-03 02:28N 51°00' E 002°11'0 0.0
2017-Dec-03 01:55N 51°00' E 002°11'0 0.0
2017-Dec-03 01:28N 51°00' E 002°11'0 0.0
2017-Dec-03 00:55N 51°00' E 002°11'0 0.0
2017-Dec-03 00:28N 51°00' E 002°11'0 0.0
2017-Dec-02 23:58N 51°00' E 002°11'0 0.0
2017-Dec-02 23:01N 51°00' E 002°11'0 0.0
2017-Dec-02 22:58N 51°00' E 002°11'0 0.0
2017-Dec-02 22:28N 51°00' E 002°11'0 0.0
2017-Dec-02 21:58N 51°00' E 002°11'0 0.0
2017-Dec-02 21:22N 51°00' E 002°11'0 0.0
2017-Dec-02 20:58N 51°00' E 002°11'0 0.0
2017-Dec-02 20:13N 51°00' E 002°11'0 0.0
2017-Dec-02 19:58N 51°00' E 002°11'0 0.0
2017-Dec-02 17:46N 51°00' E 002°11'0 0.0
2017-Dec-02 17:25N 51°00' E 002°11'0 0.0
2017-Dec-02 16:55N 51°00' E 002°11'0 0.0
2017-Dec-02 16:28N 51°00' E 002°11'0 0.0
2017-Dec-02 15:49N 51°00' E 002°11'0 0.0
2017-Dec-02 15:28N 51°00' E 002°11'0 0.0
2017-Dec-02 14:58N 51°00' E 002°11'0 0.0
2017-Dec-02 14:28N 51°00' E 002°11'0 0.0
2017-Dec-02 13:58N 51°00' E 002°11'0 0.0
2017-Dec-02 13:13N 51°00' E 002°11'0 0.0
2017-Dec-02 12:52N 51°00' E 002°11'0 0.0
2017-Dec-02 12:28N 51°00' E 002°11'0 0.0
2017-Dec-02 11:55N 51°00' E 002°11'0 0.0
2017-Dec-02 11:25N 51°00' E 002°11'0 0.0
2017-Dec-02 10:55N 51°00' E 002°11'0 0.0
2017-Dec-02 10:22N 51°00' E 002°11'0 0.0
2017-Dec-02 09:58N 51°00' E 002°11'0 0.0
2017-Dec-02 09:25N 51°00' E 002°11'0 0.0
2017-Dec-02 08:52N 51°00' E 002°11'0 0.0
2017-Dec-02 08:28N 51°00' E 002°11'0 0.0
2017-Dec-02 07:58N 51°00' E 002°11'0 0.0
2017-Dec-02 07:28N 51°00' E 002°11'0 0.0
2017-Dec-02 06:49N 51°00' E 002°11'0 0.0
2017-Dec-02 06:28N 51°00' E 002°11'0 0.0
2017-Dec-02 05:52N 51°00' E 002°11'0 0.0
2017-Dec-02 05:28N 51°00' E 002°11'0 0.0
2017-Dec-02 04:58N 51°00' E 002°11'0 0.0
2017-Dec-02 03:22N 51°00' E 002°11'0 0.0
2017-Dec-02 02:49N 51°00' E 002°11'0 0.0
2017-Dec-02 02:28N 51°00' E 002°11'0 0.0
2017-Dec-02 01:58N 51°00' E 002°11'0 0.0
2017-Dec-02 01:22N 51°00' E 002°11'0 0.0
2017-Dec-02 00:58N 51°00' E 002°11'0 0.0
2017-Dec-02 00:28N 51°00' E 002°11'0 0.0
2017-Dec-01 23:58N 51°00' E 002°11'0 0.0
2017-Dec-01 23:28N 51°00' E 002°11'0 0.0
2017-Dec-01 22:58N 51°00' E 002°11'0 0.0
2017-Dec-01 22:28N 51°00' E 002°11'0 0.0
2017-Dec-01 21:58N 51°00' E 002°11'714.5
2017-Dec-01 21:30N 51°03' E 002°01'3 4.9
2017-Dec-01 20:59N 51°03' E 002°05'714.5
2017-Dec-01 20:30N 51°02' E 001°54'  

Dump ship's entire track history